Time;durP1;ratioP1;P1;durP2;ratioP2;P2;SDS_P1;SDS_P2;PMS_P1;PMS_P2;Temp;Humidity;BMP_temperature;BMP_pressure;BME280_temperature;BME280_humidity;BME280_pressure;Samples;Min_cycle;Max_cycle;Signal;HPM_P1;HPM_P2
2022/12/18 00:00:15;;;;;;;4.20;3.90;;;;;;;12.54;79.52;95377.72;5070185;28;20324;-49
2022/12/18 00:02:42;;;;;;;4.47;3.97;;;;;;;12.42;79.32;95355.69;5090064;28;20189;-49
2022/12/18 00:05:09;;;;;;;3.83;3.53;;;;;;;12.48;79.32;95378.25;5089765;28;20291;-47
2022/12/18 00:07:36;;;;;;;4.40;4.00;;;;;;;12.48;79.52;95377.47;5084894;28;20186;-46
2022/12/18 00:10:04;;;;;;;4.17;3.80;;;;;;;12.40;79.36;95372.97;5068967;28;20304;-45
2022/12/18 00:12:31;;;;;;;4.30;3.93;;;;;;;12.41;79.23;95381.47;5069076;28;20190;-46
2022/12/18 00:14:58;;;;;;;4.50;4.10;;;;;;;12.31;79.22;95371.22;5068984;28;20190;-47
2022/12/18 00:17:26;;;;;;;4.57;4.17;;;;;;;12.36;79.16;95384.44;5069566;28;20252;-46
2022/12/18 00:19:53;;;;;;;4.70;4.30;;;;;;;12.15;78.96;95356.31;5074046;28;20221;-45
2022/12/18 00:22:19;;;;;;;4.23;3.87;;;;;;;12.33;79.03;95397.53;5073475;28;20193;-45
2022/12/18 00:24:46;;;;;;;4.20;3.80;;;;;;;12.30;78.92;95390.91;5071931;28;20711;-47
2022/12/18 00:27:13;;;;;;;4.43;4.00;;;;;;;12.29;79.04;95398.72;5071899;28;20303;-46
2022/12/18 00:29:40;;;;;;;4.43;4.03;;;;;;;12.27;79.06;95398.88;5071425;28;20268;-48
2022/12/18 00:32:07;;;;;;;4.73;4.17;;;;;;;12.25;79.01;95405.06;5071129;28;20190;-47
2022/12/18 00:34:35;;;;;;;4.50;4.00;;;;;;;12.24;78.82;95411.13;5071137;28;20649;-47
2022/12/18 00:37:02;;;;;;;4.67;4.27;;;;;;;12.22;78.97;95402.78;5071409;28;20775;-48
2022/12/18 00:39:28;;;;;;;4.50;4.10;;;;;;;12.20;78.97;95413.13;5071978;28;20277;-45
2022/12/18 00:44:40;;;;;;;4.57;4.17;;;;;;;12.17;78.49;95412.56;5071887;28;20196;-45
2022/12/18 00:47:06;;;;;;;6.03;4.20;;;;;;;12.15;78.90;95411.91;5070936;28;20189;-46
2022/12/18 00:49:34;;;;;;;4.53;4.13;;;;;;;12.12;78.80;95415.53;5075682;28;20193;-46
2022/12/18 00:52:01;;;;;;;4.43;3.90;;;;;;;12.11;78.71;95413.91;5072869;28;20194;-47
2022/12/18 00:54:28;;;;;;;4.80;4.30;;;;;;;12.03;78.66;95409.44;5074140;28;20185;-48
2022/12/18 00:56:55;;;;;;;5.03;4.53;;;;;;;12.08;78.73;95426.19;5073178;28;20222;-47
2022/12/18 00:59:22;;;;;;;5.57;4.53;;;;;;;12.07;78.59;95433.06;5074089;28;20229;-46
2022/12/18 01:01:49;;;;;;;5.20;4.70;;;;;;;12.05;78.52;95438.31;5073741;28;20667;-47
2022/12/18 01:04:16;;;;;;;6.00;4.60;;;;;;;11.98;78.30;95419.25;5074201;28;20183;-47
2022/12/18 01:06:44;;;;;;;4.97;4.50;;;;;;;11.99;78.24;95428.56;5074249;28;20183;-47
2022/12/18 01:09:11;;;;;;;5.27;4.63;;;;;;;11.94;78.26;95429.91;5074260;28;20193;-48
2022/12/18 01:11:38;;;;;;;7.80;4.47;;;;;;;11.94;78.29;95435.03;5073884;28;20212;-46
2022/12/18 01:14:05;;;;;;;5.20;4.53;;;;;;;11.83;78.32;95435.09;5073868;28;20194;-46
2022/12/18 01:16:31;;;;;;;5.77;5.00;;;;;;;11.86;78.39;95438.22;5074106;28;20194;-44
2022/12/18 01:18:58;;;;;;;5.87;4.70;;;;;;;11.88;78.27;95448.34;5073214;28;20194;-45
2022/12/18 01:21:25;;;;;;;5.30;4.57;;;;;;;11.84;78.20;95444.44;5073755;28;20260;-47
2022/12/18 01:23:55;;;;;;;4.73;4.10;;;;;;;11.83;78.10;95445.34;5073447;28;20584;-45
2022/12/18 01:26:22;;;;;;;5.07;4.57;;;;;;;11.79;78.06;95453.28;5075035;28;20197;-44
2022/12/18 01:28:49;;;;;;;5.43;4.80;;;;;;;11.62;77.93;95430.78;5074513;28;20186;-44
2022/12/18 01:31:19;;;;;;;4.90;4.40;;;;;;;11.73;78.02;95440.94;5073752;28;20247;-45
2022/12/18 01:33:46;;;;;;;5.20;4.70;;;;;;;11.73;78.14;95455.50;5073934;28;20269;-45
2022/12/18 01:36:17;;;;;;;4.60;4.20;;;;;;;11.71;77.93;95463.34;5073908;28;20231;-45
2022/12/18 01:38:44;;;;;;;4.40;4.00;;;;;;;11.65;78.04;95460.44;5073896;28;20197;-45
2022/12/18 01:41:12;;;;;;;4.93;4.43;;;;;;;11.58;77.86;95447.34;5072668;28;20722;-45
2022/12/18 01:43:48;;;;;;;4.40;4.00;;;;;;;11.45;77.88;95434.72;5073483;28;20197;-47
2022/12/18 01:46:15;;;;;;;5.87;4.50;;;;;;;11.63;77.97;95467.47;5073640;28;20182;-46
2022/12/18 01:48:43;;;;;;;5.40;4.63;;;;;;;11.62;77.82;95465.84;5075084;28;20178;-46
2022/12/18 01:51:12;;;;;;;5.03;4.27;;;;;;;11.58;77.92;95465.28;5077822;28;20180;-47
2022/12/18 01:53:41;;;;;;;6.70;5.23;;;;;;;11.56;77.86;95462.81;5077109;28;20175;-46
2022/12/18 01:56:09;;;;;;;5.67;4.37;;;;;;;11.54;77.64;95469.81;5076677;28;20229;-46
2022/12/18 01:58:44;;;;;;;7.90;5.47;;;;;;;11.52;77.80;95468.31;5077297;28;20227;-45
2022/12/18 02:01:11;;;;;;;5.90;4.97;;;;;;;11.48;77.80;95467.75;5077267;28;20213;-48
2022/12/18 02:03:38;;;;;;;5.73;5.17;;;;;;;11.47;77.71;95470.44;5077579;28;20190;-45
2022/12/18 02:06:10;;;;;;;5.30;4.77;;;;;;;10.95;77.64;95396.06;5076842;28;20193;-45
2022/12/18 02:08:44;;;;;;;5.13;4.63;;;;;;;11.41;77.56;95469.19;5076815;28;20191;-44
2022/12/18 02:11:19;;;;;;;5.97;5.03;;;;;;;11.39;77.44;95475.38;5076209;28;20689;-44
2022/12/18 02:13:58;;;;;;;5.63;4.97;;;;;;;10.54;77.49;95346.47;5076400;28;20661;-47
2022/12/18 02:16:34;;;;;;;4.70;4.30;;;;;;;11.35;77.59;95484.22;5076466;28;20193;-45
2022/12/18 02:19:06;;;;;;;6.23;5.13;;;;;;;11.33;77.62;95486.91;5076177;28;20734;-46
2022/12/18 02:21:42;;;;;;;5.10;4.60;;;;;;;11.32;77.67;95487.88;5076453;28;20214;-46
2022/12/18 02:24:20;;;;;;;4.97;4.50;;;;;;;11.32;77.57;95492.19;5076028;28;20194;-45
2022/12/18 02:26:50;;;;;;;5.17;4.77;;;;;;;11.30;77.47;95493.09;5075685;28;20623;-46
2022/12/18 02:29:22;;;;;;;5.33;4.67;;;;;;;11.28;77.41;95489.03;5076133;28;20182;-47
2022/12/18 02:31:53;;;;;;;5.53;4.57;;;;;;;11.27;77.40;95487.44;5076599;28;20187;-46
2022/12/18 02:34:24;;;;;;;8.23;5.57;;;;;;;11.24;77.47;95482.53;5076473;28;20189;-45
2022/12/18 02:36:52;;;;;;;5.63;4.87;;;;;;;11.00;77.22;95452.00;5076197;28;20183;-44
2022/12/18 02:39:22;;;;;;;5.87;5.27;;;;;;;11.22;77.47;95490.31;5075816;28;20277;-45
2022/12/18 02:41:52;;;;;;;5.37;4.77;;;;;;;11.24;77.40;95490.22;5075273;28;20226;-46
2022/12/18 02:44:19;;;;;;;7.00;4.67;;;;;;;11.24;77.30;95493.59;5076003;28;20174;-46
2022/12/18 02:46:50;;;;;;;5.87;4.60;;;;;;;11.24;77.15;95497.91;5075375;28;20239;-46
2022/12/18 02:49:28;;;;;;;5.17;4.67;;;;;;;11.24;77.05;95497.91;5075263;28;20186;-46
2022/12/18 02:51:58;;;;;;;7.90;5.03;;;;;;;11.22;77.06;95503.13;5076083;28;20272;-45
2022/12/18 02:54:39;;;;;;;6.53;4.83;;;;;;;11.18;77.00;95495.81;5075329;28;20193;-44
2022/12/18 02:57:16;;;;;;;6.90;4.90;;;;;;;11.20;77.09;95499.06;5075251;28;20217;-46
2022/12/18 02:59:52;;;;;;;5.80;4.70;;;;;;;11.19;77.11;95495.72;5075648;28;20755;-44
2022/12/18 03:02:24;;;;;;;4.90;4.40;;;;;;;11.18;77.07;95498.38;5075112;28;20224;-46
2022/12/18 03:04:59;;;;;;;5.03;4.47;;;;;;;11.18;76.99;95503.50;5075224;28;20191;-46
2022/12/18 03:07:36;;;;;;;6.27;4.50;;;;;;;11.16;77.01;95513.06;5075294;28;20661;-45
2022/12/18 03:10:04;;;;;;;6.13;5.30;;;;;;;11.12;76.95;95506.53;5075968;28;20522;-45
2022/12/18 03:12:35;;;;;;;5.60;4.57;;;;;;;11.14;76.88;95517.47;5074491;28;20249;-46
2022/12/18 03:15:09;;;;;;;5.83;4.33;;;;;;;11.11;76.91;95522.84;5074904;28;20631;-45
2022/12/18 03:17:37;;;;;;;4.80;4.40;;;;;;;11.11;76.71;95526.22;5076038;28;20181;-46
2022/12/18 03:20:11;;;;;;;6.63;4.87;;;;;;;11.11;76.78;95527.97;5075949;28;20208;-46
2022/12/18 03:22:39;;;;;;;5.17;4.67;;;;;;;10.98;76.69;95510.19;5074952;28;20190;-46
2022/12/18 03:25:10;;;;;;;4.70;4.20;;;;;;;10.95;76.45;95506.13;5075906;28;20660;-46
2022/12/18 03:27:43;;;;;;;5.70;5.10;;;;;;;11.07;76.68;95522.28;5074675;28;20242;-45
2022/12/18 03:30:13;;;;;;;4.97;4.47;;;;;;;11.07;76.55;95534.25;5075204;28;20248;-46
2022/12/18 03:32:45;;;;;;;4.50;4.10;;;;;;;11.02;76.56;95527.75;5074404;28;20186;-45
2022/12/18 03:35:15;;;;;;;4.93;4.43;;;;;;;11.04;76.63;95527.63;5074932;28;20182;-45
2022/12/18 03:37:42;;;;;;;6.47;4.93;;;;;;;10.97;76.49;95529.06;5074514;28;20252;-46
2022/12/18 03:40:09;;;;;;;5.70;4.27;;;;;;;11.03;76.50;95544.72;5074613;28;20182;-46
2022/12/18 03:42:48;;;;;;;5.03;4.53;;;;;;;11.01;76.53;95549.16;5075003;28;20182;-45
2022/12/18 03:45:23;;;;;;;5.13;4.50;;;;;;;11.02;76.48;95557.66;5075067;28;20182;-46
2022/12/18 03:48:00;;;;;;;5.87;4.80;;;;;;;10.99;76.50;95563.81;5075113;28;20280;-46
2022/12/18 03:50:37;;;;;;;5.40;4.40;;;;;;;10.98;76.32;95566.50;5075057;28;20182;-46
2022/12/18 03:53:13;;;;;;;5.23;4.50;;;;;;;10.96;76.34;95566.59;5074672;28;20256;-45
2022/12/18 03:55:40;;;;;;;6.03;4.90;;;;;;;10.58;76.34;95505.59;5074401;28;20182;-47
2022/12/18 03:58:12;;;;;;;5.43;4.60;;;;;;;10.94;76.34;95567.66;5074067;28;20255;-46
2022/12/18 04:00:40;;;;;;;5.40;4.43;;;;;;;10.92;76.27;95569.50;5074199;28;20221;-46
2022/12/18 04:03:08;;;;;;;4.80;4.30;;;;;;;10.76;76.26;95547.69;5074676;28;20186;-45
2022/12/18 04:05:36;;;;;;;5.20;4.73;;;;;;;10.90;76.35;95579.06;5074558;28;20566;-47
2022/12/18 04:08:04;;;;;;;4.67;4.27;;;;;;;10.71;76.33;95543.84;5074574;28;20183;-46
2022/12/18 04:10:31;;;;;;;4.60;4.20;;;;;;;10.89;76.19;95587.69;5073651;28;20194;-45
2022/12/18 04:12:58;;;;;;;5.00;4.13;;;;;;;10.87;76.05;95595.47;5077154;28;20187;-46
2022/12/18 04:15:27;;;;;;;4.50;4.10;;;;;;;10.84;76.00;95589.75;5074338;28;20248;-48
2022/12/18 04:17:53;;;;;;;4.70;4.30;;;;;;;10.81;76.01;95595.94;5074332;28;20633;-45
2022/12/18 04:20:20;;;;;;;6.53;5.47;;;;;;;10.86;75.95;95608.38;5074964;28;20177;-47
2022/12/18 04:22:47;;;;;;;5.30;4.80;;;;;;;10.86;76.14;95606.63;5074649;28;20193;-46
2022/12/18 04:25:14;;;;;;;4.97;4.47;;;;;;;10.87;75.94;95607.44;5074937;28;20252;-47
2022/12/18 04:27:41;;;;;;;4.97;4.33;;;;;;;10.67;76.01;95576.53;5073758;28;20198;-47
2022/12/18 04:30:08;;;;;;;6.27;4.90;;;;;;;10.81;75.85;95601.06;5074189;28;20210;-48
2022/12/18 04:32:37;;;;;;;5.13;4.53;;;;;;;10.63;75.45;95576.88;5074730;28;20269;-45
2022/12/18 04:35:06;;;;;;;6.10;4.53;;;;;;;10.80;75.83;95618.16;5073690;28;20182;-47
2022/12/18 04:37:33;;;;;;;5.43;4.83;;;;;;;10.80;75.67;95622.47;5074097;28;20291;-45
2022/12/18 04:40:00;;;;;;;5.57;5.00;;;;;;;10.78;75.30;95630.22;5074132;28;20174;-47
2022/12/18 04:42:27;;;;;;;5.80;5.20;;;;;;;10.80;75.40;95637.81;5073972;28;20221;-47
2022/12/18 04:44:53;;;;;;;5.90;4.57;;;;;;;10.75;75.32;95640.72;5073751;28;20260;-45
2022/12/18 04:47:20;;;;;;;6.87;5.20;;;;;;;10.77;75.19;95640.59;5074497;28;20178;-47
2022/12/18 04:49:48;;;;;;;6.83;5.23;;;;;;;10.76;75.35;95638.97;5073677;28;20186;-46
2022/12/18 04:52:15;;;;;;;7.30;4.60;;;;;;;10.77;75.24;95646.53;5073973;28;20194;-48
2022/12/18 04:54:42;;;;;;;6.27;5.27;;;;;;;10.63;74.96;95620.34;5074650;28;20664;-46
2022/12/18 04:57:08;;;;;;;5.20;4.70;;;;;;;10.73;75.13;95645.13;5073730;28;20218;-46
2022/12/18 04:59:35;;;;;;;8.87;5.70;;;;;;;10.75;75.08;95660.34;5073457;28;20175;-46
2022/12/18 05:02:02;;;;;;;6.17;5.57;;;;;;;10.74;74.91;95659.53;5074212;28;20201;-45
2022/12/18 05:04:29;;;;;;;6.33;5.63;;;;;;;10.74;74.94;95663.84;5074147;28;20201;-46
2022/12/18 05:06:57;;;;;;;6.13;5.53;;;;;;;10.74;74.77;95663.84;5073814;28;20190;-46
2022/12/18 05:09:24;;;;;;;6.97;5.53;;;;;;;10.59;74.61;95645.34;5073391;28;20569;-49
2022/12/18 05:11:51;;;;;;;6.83;5.00;;;;;;;10.71;74.71;95676.88;5073071;28;20182;-46
2022/12/18 05:14:18;;;;;;;5.93;5.30;;;;;;;10.66;74.71;95672.09;5074180;28;20254;-46
2022/12/18 05:16:44;;;;;;;5.23;4.73;;;;;;;10.70;74.40;95677.78;5073439;28;20186;-49
2022/12/18 05:19:11;;;;;;;6.23;5.63;;;;;;;10.68;74.36;95680.47;5073912;28;20185;-46
2022/12/18 05:21:38;;;;;;;7.30;5.80;;;;;;;10.65;74.45;95678.13;5073680;28;20206;-45
2022/12/18 05:24:07;;;;;;;7.20;5.77;;;;;;;10.65;74.17;95690.13;5077008;28;20202;-46
2022/12/18 05:26:34;;;;;;;7.33;6.10;;;;;;;10.64;74.33;95685.94;5077150;28;20220;-45
2022/12/18 05:29:01;;;;;;;7.40;6.37;;;;;;;10.59;74.09;95682.91;5077908;28;20178;-46
2022/12/18 05:31:27;;;;;;;6.43;5.57;;;;;;;10.60;73.98;95697.31;5079876;28;20200;-46
2022/12/18 05:33:54;;;;;;;7.80;6.40;;;;;;;10.59;74.26;95693.94;5084434;28;20629;-46
2022/12/18 05:36:21;;;;;;;7.63;6.60;;;;;;;10.59;74.07;95696.50;5073395;28;20228;-45
2022/12/18 05:38:48;;;;;;;8.03;6.27;;;;;;;10.38;74.01;95672.50;5084820;28;20190;-45
2022/12/18 05:41:16;;;;;;;7.27;6.10;;;;;;;10.57;74.08;95708.56;5082947;28;20202;-46
2022/12/18 05:43:43;;;;;;;8.13;6.27;;;;;;;10.57;73.88;95716.25;5075232;28;20854;-47
2022/12/18 05:46:14;;;;;;;7.63;6.40;;;;;;;10.57;74.00;95718.00;5074258;28;20537;-50
2022/12/18 05:48:41;;;;;;;7.83;6.80;;;;;;;10.55;73.87;95718.94;5083568;28;20201;-47
2022/12/18 05:51:09;;;;;;;9.43;7.17;;;;;;;10.52;73.98;95719.16;5078695;28;20673;-46
2022/12/18 05:53:37;;;;;;;8.60;6.03;;;;;;;10.52;73.76;95718.34;5070897;28;20183;-46
2022/12/18 05:56:06;;;;;;;8.57;6.90;;;;;;;10.50;73.86;95728.69;5084272;28;20230;-45
2022/12/18 05:58:34;;;;;;;6.57;5.83;;;;;;;10.49;73.70;95721.94;5083669;28;20886;-46
2022/12/18 06:01:10;;;;;;;8.03;6.90;;;;;;;10.48;73.54;95725.41;5073337;28;20641;-47
2022/12/18 06:03:37;;;;;;;8.80;6.87;;;;;;;10.47;73.49;95728.09;5091602;28;20545;-47
2022/12/18 06:06:04;;;;;;;10.13;7.27;;;;;;;10.44;73.76;95734.22;5092233;28;20186;-45
2022/12/18 06:08:31;;;;;;;8.23;7.13;;;;;;;10.44;73.33;95725.75;5091738;28;20656;-46
2022/12/18 06:10:57;;;;;;;9.30;7.13;;;;;;;10.45;73.46;95733.31;5092069;28;20186;-48
2022/12/18 06:13:24;;;;;;;9.63;7.07;;;;;;;10.45;73.31;95738.44;5091552;28;20198;-46
2022/12/18 06:15:52;;;;;;;9.83;7.13;;;;;;;10.45;73.42;95732.50;5090560;28;20197;-49
2022/12/18 06:18:19;;;;;;;8.03;6.63;;;;;;;10.46;73.20;95739.25;5089865;28;20197;-46
2022/12/18 06:20:46;;;;;;;9.00;7.17;;;;;;;10.46;73.22;95750.28;5071604;28;20199;-46
2022/12/18 06:23:13;;;;;;;9.27;7.30;;;;;;;10.43;73.29;95742.84;5070966;28;20226;-48
2022/12/18 06:25:40;;;;;;;8.40;6.90;;;;;;;10.44;73.17;95746.19;5071518;28;20706;-46
2022/12/18 06:28:07;;;;;;;9.27;7.43;;;;;;;10.45;73.23;95751.22;5072676;28;20190;-46
2022/12/18 06:30:34;;;;;;;11.80;7.57;;;;;;;10.38;73.07;95737.25;5090941;28;20194;-45
2022/12/18 06:33:02;;;;;;;10.47;8.10;;;;;;;10.47;73.20;95757.03;5088819;28;20178;-46
2022/12/18 06:35:29;;;;;;;9.73;7.40;;;;;;;10.49;72.96;95762.03;5085891;28;20182;-46
2022/12/18 06:37:55;;;;;;;9.27;7.87;;;;;;;10.49;73.04;95765.44;5071431;28;20604;-49
2022/12/18 06:40:22;;;;;;;11.67;8.53;;;;;;;10.50;73.02;95767.06;5071051;28;20202;-46
2022/12/18 06:42:49;;;;;;;8.57;6.90;;;;;;;10.48;72.93;95768.06;5070709;28;20225;-46
2022/12/18 06:45:16;;;;;;;9.83;7.83;;;;;;;10.51;72.98;95772.97;5075868;28;20221;-47
2022/12/18 06:47:43;;;;;;;10.13;7.57;;;;;;;10.52;72.91;95782.28;5070888;28;20187;-47
2022/12/18 06:50:11;;;;;;;10.13;7.90;;;;;;;10.49;72.85;95780.78;5078267;28;20189;-47
2022/12/18 06:52:38;;;;;;;10.20;7.77;;;;;;;10.54;72.82;95790.66;5077352;28;20194;-49
2022/12/18 06:55:09;;;;;;;9.30;7.40;;;;;;;10.55;72.73;95789.75;5089712;28;20190;-45
2022/12/18 06:57:37;;;;;;;10.80;8.33;;;;;;;10.54;72.67;95788.91;5073462;28;20249;-47
2022/12/18 07:00:05;;;;;;;9.80;7.43;;;;;;;10.57;72.61;95792.16;5070624;28;20209;-46
2022/12/18 07:02:32;;;;;;;11.50;8.10;;;;;;;10.57;72.74;95795.53;5068394;28;20210;-46
2022/12/18 07:04:59;;;;;;;10.33;7.63;;;;;;;10.59;72.67;95796.25;5067751;28;20187;-46
2022/12/18 07:07:27;;;;;;;9.27;7.53;;;;;;;10.60;72.36;95797.88;5068178;28;20516;-47
2022/12/18 07:09:54;;;;;;;15.80;6.03;;;;;;;10.88;99.48;95785.63;5067930;28;20308;-49
2022/12/18 07:12:21;;;;;;;12.53;6.67;;;;;;;11.56;100.00;95795.03;5067505;28;20202;-46
2022/12/18 07:14:48;;;;;;;17.00;8.03;;;;;;;12.23;100.00;95789.06;5068106;28;20194;-45
2022/12/18 07:17:14;;;;;;;9.37;6.87;;;;;;;12.79;100.00;95799.94;5067546;28;20209;-46
2022/12/18 07:19:41;;;;;;;13.07;6.47;;;;;;;13.34;100.00;95786.91;5068341;28;20676;-46
2022/12/18 07:22:08;;;;;;;8.17;6.57;;;;;;;13.81;100.00;95802.66;5067969;28;20284;-49
2022/12/18 07:24:37;;;;;;;7.97;6.43;;;;;;;14.06;99.74;95811.69;5067638;28;20198;-47
2022/12/18 07:27:04;;;;;;;6.90;6.20;;;;;;;14.08;97.24;95809.00;5067942;28;20577;-48
2022/12/18 07:29:31;;;;;;;9.07;7.23;;;;;;;14.00;93.19;95818.19;5067307;28;20201;-47
2022/12/18 07:31:57;;;;;;;9.47;6.50;;;;;;;13.85;89.25;95816.09;5074465;28;20660;-50
2022/12/18 07:34:24;;;;;;;9.07;7.50;;;;;;;13.74;86.52;95828.09;5088103;28;20213;-48
2022/12/18 07:36:51;;;;;;;9.77;6.80;;;;;;;13.59;84.61;95829.38;5088066;28;20205;-46
2022/12/18 07:39:18;;;;;;;9.17;7.73;;;;;;;13.41;83.21;95823.19;5088258;28;20190;-47
2022/12/18 07:42:30;;;;;;;9.33;7.00;;;;;;;13.30;82.09;95827.47;5088105;28;20209;-47
2022/12/18 07:44:33;;;;;;;8.90;7.33;;;;;;;13.15;81.12;95830.44;5082334;28;20205;-46
2022/12/18 07:47:00;;;;;;;12.87;7.87;;;;;;;13.02;80.47;95830.63;5066265;28;20206;-48
2022/12/18 07:49:27;;;;;;;8.60;7.57;;;;;;;12.90;80.27;95831.63;5067632;28;20193;-48
2022/12/18 07:51:55;;;;;;;9.07;6.93;;;;;;;12.78;79.79;95836.81;5067450;28;20674;-44
2022/12/18 07:54:22;;;;;;;11.63;7.77;;;;;;;12.61;79.53;95834.78;5068668;28;20240;-48
2022/12/18 07:56:51;;;;;;;10.33;7.93;;;;;;;12.59;79.47;95851.22;5067076;28;20697;-46
2022/12/18 07:59:18;;;;;;;11.13;8.47;;;;;;;12.48;79.34;95844.41;5067057;28;20731;-45
2022/12/18 08:01:45;;;;;;;12.13;9.20;;;;;;;12.40;79.18;95850.13;5067490;28;20291;-46
2022/12/18 08:04:12;;;;;;;12.00;8.20;;;;;;;12.35;78.65;95851.41;5068246;28;20193;-46
2022/12/18 08:06:39;;;;;;;9.43;8.33;;;;;;;12.19;78.30;95852.59;5087251;28;20205;-45
2022/12/18 08:09:06;;;;;;;11.67;9.13;;;;;;;12.18;78.32;95863.00;5087048;28;20208;-45
2022/12/18 08:11:33;;;;;;;11.33;9.27;;;;;;;12.09;78.12;95861.09;5087403;28;20189;-45
2022/12/18 08:14:01;;;;;;;11.40;9.07;;;;;;;12.01;78.11;95859.97;5084554;28;20189;-49
2022/12/18 08:16:28;;;;;;;13.63;9.27;;;;;;;11.96;78.04;95863.78;5086718;28;20294;-45
2022/12/18 08:18:55;;;;;;;9.93;8.73;;;;;;;11.88;78.01;95864.41;5068645;28;20256;-45
2022/12/18 08:21:23;;;;;;;11.60;8.73;;;;;;;11.84;77.91;95875.81;5066881;28;20183;-44
2022/12/18 08:23:51;;;;;;;13.37;10.27;;;;;;;11.79;77.88;95876.13;5066396;28;20218;-44
2022/12/18 08:26:18;;;;;;;12.30;9.47;;;;;;;11.76;77.49;95886.63;5083633;28;20568;-46
2022/12/18 08:28:45;;;;;;;12.37;9.67;;;;;;;11.64;77.61;95873.91;5086181;28;20182;-44
2022/12/18 08:31:13;;;;;;;12.37;10.07;;;;;;;11.71;77.24;95887.91;5086778;28;20185;-44
2022/12/18 08:33:41;;;;;;;13.27;10.60;;;;;;;11.69;77.09;95894.88;5086773;28;20198;-45
2022/12/18 08:36:10;;;;;;;14.13;10.67;;;;;;;11.58;76.85;95882.88;5084733;28;20197;-46
2022/12/18 08:38:37;;;;;;;12.80;9.50;;;;;;;11.64;76.73;95895.22;5086814;28;20193;-45
2022/12/18 08:41:05;;;;;;;12.73;9.60;;;;;;;11.62;76.60;95898.84;5086474;28;20305;-45
2022/12/18 08:46:19;;;;;;;12.70;9.77;;;;;;;11.54;75.97;95899.41;5084709;28;20247;-44
2022/12/18 08:48:45;;;;;;;12.50;9.77;;;;;;;11.52;75.68;95904.63;5086581;28;20182;-46
2022/12/18 08:51:12;;;;;;;13.47;10.00;;;;;;;11.53;75.60;95910.59;5087011;28;20185;-45
2022/12/18 08:53:39;;;;;;;13.30;10.23;;;;;;;11.50;75.42;95901.38;5086604;28;20633;-44
2022/12/18 08:56:07;;;;;;;14.47;10.70;;;;;;;11.48;75.29;95899.84;5084146;28;20224;-46
2022/12/18 08:58:34;;;;;;;14.93;10.40;;;;;;;11.51;75.08;95900.44;5089651;28;20208;-47
2022/12/18 09:01:02;;;;;;;16.00;11.17;;;;;;;11.53;74.96;95897.78;5089951;28;20186;-47
2022/12/18 09:03:30;;;;;;;13.90;10.17;;;;;;;11.45;74.58;95887.28;5090495;28;20217;-47
2022/12/18 09:05:57;;;;;;;13.70;10.60;;;;;;;11.52;74.56;95896.94;5090346;28;20668;-47
2022/12/18 09:08:24;;;;;;;13.90;10.43;;;;;;;11.46;74.58;95892.28;5081056;28;20214;-47
2022/12/18 09:10:53;;;;;;;14.50;11.47;;;;;;;11.53;74.29;95892.66;5070081;28;20190;-46
2022/12/18 09:13:20;;;;;;;15.40;10.43;;;;;;;11.53;74.14;95895.22;5069767;28;20811;-46
2022/12/18 09:15:49;;;;;;;13.80;11.50;;;;;;;11.53;74.01;95890.91;5070144;28;20927;-46
2022/12/18 09:18:17;;;;;;;15.63;11.47;;;;;;;11.53;73.55;95890.91;5071423;28;20288;-45
2022/12/18 09:20:46;;;;;;;14.33;10.33;;;;;;;11.58;73.49;95894.88;5069626;28;20194;-45
2022/12/18 09:23:14;;;;;;;14.03;11.03;;;;;;;11.59;73.33;95889.63;5070239;28;20218;-46
2022/12/18 09:25:41;;;;;;;15.17;11.57;;;;;;;11.62;73.26;95893.72;5069462;28;20316;-44
2022/12/18 09:28:12;;;;;;;14.90;11.20;;;;;;;11.61;73.01;95887.75;5070833;28;20244;-46
2022/12/18 09:30:40;;;;;;;14.50;11.43;;;;;;;11.65;72.86;95896.03;5069383;28;20198;-46
2022/12/18 09:33:06;;;;;;;13.93;11.07;;;;;;;11.66;72.69;95892.56;5069849;28;20182;-46
2022/12/18 09:35:36;;;;;;;15.03;11.07;;;;;;;11.69;72.53;95897.44;5073625;28;20273;-45
2022/12/18 09:38:04;;;;;;;12.87;10.33;;;;;;;11.71;72.15;95900.72;5089613;28;20193;-46
2022/12/18 09:40:35;;;;;;;15.93;11.47;;;;;;;11.74;72.13;95893.63;5087814;28;20193;-46
2022/12/18 09:43:05;;;;;;;15.03;11.20;;;;;;;11.76;71.77;95898.63;5090168;28;20263;-45
2022/12/18 09:45:39;;;;;;;13.57;10.43;;;;;;;11.70;71.78;95884.53;5089510;28;20193;-46
2022/12/18 09:48:11;;;;;;;14.83;10.83;;;;;;;11.84;71.74;95900.63;5089589;28;20186;-46
2022/12/18 09:50:40;;;;;;;14.17;10.67;;;;;;;11.88;71.42;95897.72;5087840;28;20185;-45
2022/12/18 09:53:17;;;;;;;16.37;10.73;;;;;;;11.93;71.39;95897.38;5089438;28;20193;-46
2022/12/18 09:55:46;;;;;;;13.47;10.33;;;;;;;11.98;71.24;95898.66;5089002;28;20205;-46
2022/12/18 09:58:18;;;;;;;15.43;10.83;;;;;;;12.03;70.83;95899.09;5089459;28;20192;-45
2022/12/18 10:00:45;;;;;;;16.43;11.10;;;;;;;12.11;70.54;95895.16;5087000;28;20185;-46
2022/12/18 10:03:14;;;;;;;16.83;11.77;;;;;;;12.16;70.33;95904.13;5069062;28;20214;-45
2022/12/18 10:05:48;;;;;;;14.47;11.03;;;;;;;12.23;70.04;95891.66;5069062;28;20187;-46
2022/12/18 10:08:22;;;;;;;15.27;11.07;;;;;;;12.27;69.73;95890.50;5068749;28;20429;-47
2022/12/18 10:10:53;;;;;;;14.77;11.30;;;;;;;12.35;69.39;95895.84;5069652;28;20190;-44
2022/12/18 10:13:27;;;;;;;12.77;9.53;;;;;;;12.43;69.45;95892.66;5068641;28;20238;-44
2022/12/18 10:16:04;;;;;;;17.13;10.33;;;;;;;12.50;69.05;95896.38;5068805;28;20190;-45
2022/12/18 10:19:00;;;;;;;12.90;8.83;;;;;;;12.53;68.73;95899.53;5068909;28;20578;-45
2022/12/18 10:21:33;;;;;;;14.07;10.13;;;;;;;12.63;68.63;95901.38;5069894;28;20190;-46
2022/12/18 10:24:17;;;;;;;12.60;10.43;;;;;;;12.66;68.58;95901.97;5068513;28;20225;-45
2022/12/18 10:26:45;;;;;;;13.57;9.90;;;;;;;12.67;68.41;95903.59;5069153;28;20201;-45
2022/12/18 10:29:14;;;;;;;13.83;10.60;;;;;;;12.73;68.12;95903.09;5068729;28;20700;-44
2022/12/18 10:31:41;;;;;;;11.70;9.37;;;;;;;12.74;68.03;95896.22;5069714;28;20755;-44
2022/12/18 10:34:10;;;;;;;13.63;10.13;;;;;;;12.78;67.99;95905.31;5068638;28;20788;-50
2022/12/18 10:36:37;;;;;;;13.13;9.57;;;;;;;12.83;67.42;95908.34;5068656;28;20186;-46
2022/12/18 10:39:23;;;;;;;11.73;9.37;;;;;;;12.87;67.44;95904.59;5077003;28;20589;-45
2022/12/18 10:41:50;;;;;;;13.27;9.90;;;;;;;12.88;67.37;95898.50;5088796;28;20211;-44
2022/12/18 10:44:21;;;;;;;12.77;10.37;;;;;;;12.93;66.94;95904.09;5071768;28;20222;-45
2022/12/18 10:46:50;;;;;;;12.67;10.43;;;;;;;12.95;66.80;95896.25;5068506;28;20443;-46
2022/12/18 10:49:24;;;;;;;12.57;9.87;;;;;;;12.87;67.00;95883.25;5068539;28;20187;-46
2022/12/18 10:51:51;;;;;;;15.43;11.33;;;;;;;12.97;66.76;95897.78;5068789;28;20291;-44
2022/12/18 10:54:23;;;;;;;13.83;10.33;;;;;;;12.96;66.78;95896.16;5069483;28;20190;-46
2022/12/18 10:56:50;;;;;;;12.57;10.30;;;;;;;13.00;66.40;95892.41;5083196;28;20225;-43
2022/12/18 10:59:18;;;;;;;12.50;9.50;;;;;;;13.02;66.32;95893.06;5088451;28;20197;-45
2022/12/18 11:01:51;;;;;;;11.60;8.67;;;;;;;13.04;66.22;95890.41;5088002;28;20200;-48
2022/12/18 11:04:21;;;;;;;12.47;9.67;;;;;;;13.01;66.02;95877.81;5088266;28;20625;-46
2022/12/18 11:07:02;;;;;;;12.23;9.10;;;;;;;13.05;65.75;95892.03;5088696;28;20186;-47
2022/12/18 11:09:32;;;;;;;13.63;9.53;;;;;;;13.06;65.88;95899.59;5088218;28;20232;-46
2022/12/18 11:12:01;;;;;;;13.00;9.90;;;;;;;13.05;65.79;95905.69;5088045;28;20193;-47
2022/12/18 11:14:30;;;;;;;17.03;10.53;;;;;;;13.06;65.65;95901.34;5088006;28;20202;-46
2022/12/18 11:16:58;;;;;;;12.50;9.40;;;;;;;13.07;65.64;95900.41;5088347;28;20193;-46
2022/12/18 11:19:32;;;;;;;12.13;9.50;;;;;;;13.09;65.50;95905.44;5087768;28;20276;-47
2022/12/18 11:22:00;;;;;;;13.53;9.77;;;;;;;13.10;65.41;95907.88;5086920;28;20197;-47
2022/12/18 11:24:32;;;;;;;12.90;10.00;;;;;;;13.09;65.25;95905.44;5090107;28;20224;-45
2022/12/18 11:27:02;;;;;;;15.53;9.90;;;;;;;13.11;65.19;95906.94;5076035;28;20793;-46
2022/12/18 11:29:34;;;;;;;12.13;9.40;;;;;;;13.09;65.02;95911.41;5067530;28;20194;-44
2022/12/18 11:32:25;;;;;;;12.23;9.30;;;;;;;12.87;65.12;95870.41;5067106;28;20233;-45
2022/12/18 11:34:59;;;;;;;13.07;9.50;;;;;;;12.92;65.08;95874.22;5067281;28;20195;-46
2022/12/18 11:37:25;;;;;;;12.20;9.03;;;;;;;13.06;65.08;95902.16;5077750;28;20194;-44
2022/12/18 11:39:59;;;;;;;12.63;9.03;;;;;;;13.06;64.84;95894.47;5090053;28;20197;-44
2022/12/18 11:42:36;;;;;;;12.03;8.90;;;;;;;13.06;64.91;95909.06;5090393;28;20239;-47